createdAt,value
2022-10-17T00:02:18.731Z,21.60
2022-10-17T00:05:20.415Z,21.60
2022-10-17T00:08:22.203Z,21.60
2022-10-17T00:11:24.252Z,21.60
2022-10-17T00:14:26.004Z,21.60
2022-10-17T00:17:28.070Z,21.60
2022-10-17T00:20:32.857Z,21.60
2022-10-17T00:23:34.604Z,21.60
2022-10-17T00:26:36.280Z,21.60
2022-10-17T00:29:37.981Z,21.50
2022-10-17T00:32:40.226Z,21.50
2022-10-17T00:35:41.928Z,21.50
2022-10-17T00:38:46.738Z,21.60
2022-10-17T00:41:48.467Z,21.50
2022-10-17T00:44:50.136Z,21.50
2022-10-17T00:48:03.946Z,21.50
2022-10-17T00:51:06.520Z,21.50
2022-10-17T00:54:09.600Z,21.50
2022-10-17T00:57:12.003Z,21.50
2022-10-17T01:00:14.527Z,21.50
2022-10-17T01:03:16.646Z,21.50
2022-10-17T01:06:18.522Z,21.50
2022-10-17T01:09:20.550Z,21.50
2022-10-17T01:12:25.441Z,21.50
2022-10-17T01:15:39.606Z,21.50
2022-10-17T01:18:47.889Z,21.50
2022-10-17T01:22:05.436Z,21.50
2022-10-17T01:25:26.747Z,21.50
2022-10-17T01:28:56.923Z,21.50
2022-10-17T01:32:17.957Z,21.50
2022-10-17T01:35:49.093Z,21.50
2022-10-17T01:38:57.289Z,21.50
2022-10-17T01:42:13.557Z,21.50
2022-10-17T01:45:25.033Z,21.50
2022-10-17T01:48:34.861Z,21.50
2022-10-17T01:51:48.902Z,21.50
2022-10-17T01:55:06.061Z,21.50
2022-10-17T01:58:16.587Z,21.50
2022-10-17T02:01:20.931Z,21.50
2022-10-17T02:04:23.126Z,21.50
2022-10-17T02:07:25.142Z,21.50
2022-10-17T02:10:54.301Z,21.50
2022-10-17T02:14:09.846Z,21.50
2022-10-17T02:17:28.842Z,21.50
2022-10-17T02:20:33.355Z,21.50
2022-10-17T02:24:04.806Z,21.50
2022-10-17T02:27:21.595Z,21.50
2022-10-17T02:30:26.264Z,21.50
2022-10-17T02:33:41.788Z,21.40
2022-10-17T02:36:51.761Z,21.50
2022-10-17T02:39:56.030Z,21.50
2022-10-17T02:42:59.651Z,21.50
2022-10-17T02:46:01.503Z,21.40
2022-10-17T02:49:07.080Z,21.50
2022-10-17T02:52:27.095Z,21.50
2022-10-17T02:55:36.048Z,21.50
2022-10-17T02:58:39.736Z,21.50
2022-10-17T03:01:41.965Z,21.50
2022-10-17T03:04:45.682Z,21.40
2022-10-17T03:07:47.747Z,21.40
2022-10-17T03:10:50.041Z,21.40
2022-10-17T03:13:51.874Z,21.40
2022-10-17T03:16:53.689Z,21.40
2022-10-17T03:19:55.480Z,21.40
2022-10-17T03:22:57.266Z,21.40
2022-10-17T03:25:59.000Z,21.40
2022-10-17T03:29:00.888Z,21.50
2022-10-17T03:32:04.401Z,21.40
2022-10-17T03:35:07.070Z,21.50
2022-10-17T03:38:09.555Z,21.40
2022-10-17T03:41:12.453Z,21.40
2022-10-17T03:44:14.683Z,21.40
2022-10-17T03:47:16.484Z,21.40
2022-10-17T03:50:18.690Z,21.40
2022-10-17T03:53:20.606Z,21.40
2022-10-17T03:56:25.003Z,21.40
2022-10-17T03:59:37.567Z,21.40
2022-10-17T04:02:48.286Z,21.40
2022-10-17T04:05:53.577Z,21.40
2022-10-17T04:08:55.389Z,21.40
2022-10-17T04:12:01.933Z,21.40
2022-10-17T04:15:06.416Z,21.40
2022-10-17T04:18:08.267Z,21.40
2022-10-17T04:21:11.707Z,21.40
2022-10-17T04:24:13.667Z,21.40
2022-10-17T04:27:23.523Z,21.40
2022-10-17T04:30:26.177Z,21.40
2022-10-17T04:33:28.187Z,21.40
2022-10-17T04:36:30.264Z,21.40
2022-10-17T04:39:32.352Z,21.40
2022-10-17T04:42:34.471Z,21.40
2022-10-17T04:45:36.481Z,21.40
2022-10-17T04:48:41.301Z,21.40
2022-10-17T04:51:43.395Z,21.40
2022-10-17T04:54:58.207Z,21.40
2022-10-17T04:58:00.082Z,21.40
2022-10-17T05:01:08.450Z,21.40
2022-10-17T05:04:11.321Z,21.40
2022-10-17T05:07:13.520Z,21.40
2022-10-17T05:10:23.778Z,21.40
2022-10-17T05:13:27.478Z,21.40
2022-10-17T05:16:29.997Z,21.40
2022-10-17T05:19:31.868Z,21.40
2022-10-17T05:22:38.232Z,21.40
2022-10-17T05:25:43.019Z,21.40
2022-10-17T05:28:44.805Z,21.40
2022-10-17T05:31:46.812Z,21.40
2022-10-17T05:34:48.545Z,21.40
2022-10-17T05:37:50.395Z,21.40
2022-10-17T05:40:58.461Z,21.40
2022-10-17T05:44:04.574Z,21.40
2022-10-17T05:47:16.423Z,21.40
2022-10-17T05:50:21.474Z,21.40
2022-10-17T05:53:38.791Z,21.40
2022-10-17T05:56:43.621Z,21.40
2022-10-17T05:59:45.333Z,21.40
2022-10-17T06:02:50.337Z,21.40
2022-10-17T06:05:54.516Z,21.40
2022-10-17T06:08:56.269Z,21.40
2022-10-17T06:12:03.666Z,21.40
2022-10-17T06:15:05.920Z,21.40
2022-10-17T06:18:09.441Z,21.40
2022-10-17T06:21:14.663Z,21.40
2022-10-17T06:24:20.323Z,21.40
2022-10-17T06:27:22.699Z,21.40
2022-10-17T06:30:24.584Z,21.40
2022-10-17T06:33:26.398Z,21.40
2022-10-17T06:36:28.424Z,21.40
2022-10-17T06:39:33.803Z,21.40
2022-10-17T06:42:41.471Z,21.60
2022-10-17T06:45:58.123Z,22.00
2022-10-17T06:49:11.092Z,22.20
2022-10-17T06:52:35.973Z,22.20
2022-10-17T06:56:01.199Z,22.40
2022-10-17T06:59:15.912Z,22.80
2022-10-17T07:02:25.285Z,23.00
2022-10-17T07:05:28.119Z,23.30
2022-10-17T07:08:30.056Z,23.40
2022-10-17T07:11:37.012Z,23.60
2022-10-17T07:14:38.753Z,23.90
2022-10-17T07:17:40.493Z,23.80
2022-10-17T07:20:42.349Z,23.60
2022-10-17T07:23:44.243Z,23.30
2022-10-17T07:26:46.153Z,23.20
2022-10-17T07:29:48.184Z,23.10
2022-10-17T07:33:07.327Z,22.90
2022-10-17T07:36:10.396Z,22.90
2022-10-17T07:39:12.565Z,22.80
2022-10-17T07:42:15.235Z,22.70
2022-10-17T07:45:17.217Z,22.70
2022-10-17T07:48:20.298Z,22.70
2022-10-17T07:51:22.227Z,22.60
2022-10-17T07:54:24.027Z,22.60
2022-10-17T07:57:26.122Z,22.50
2022-10-17T08:00:27.806Z,22.50
2022-10-17T08:03:29.605Z,22.50
2022-10-17T08:06:31.321Z,22.50
2022-10-17T08:09:33.011Z,22.50
2022-10-17T08:12:35.638Z,22.50
2022-10-17T08:15:38.799Z,22.50
2022-10-17T08:18:43.199Z,22.50
2022-10-17T08:21:46.788Z,22.50
2022-10-17T08:24:48.512Z,22.50
2022-10-17T08:27:50.320Z,22.50
2022-10-17T08:31:19.548Z,22.50
2022-10-17T08:34:21.382Z,22.50
2022-10-17T08:37:23.374Z,22.50
2022-10-17T08:40:27.948Z,22.50
2022-10-17T08:44:10.070Z,22.50
2022-10-17T08:47:16.441Z,22.60
2022-10-17T08:50:40.125Z,22.60
2022-10-17T08:54:16.861Z,22.60
2022-10-17T08:57:18.736Z,22.70
2022-10-17T09:00:22.566Z,22.70
2022-10-17T09:03:41.153Z,22.70
2022-10-17T09:06:54.882Z,22.70
2022-10-17T09:10:15.805Z,22.70
2022-10-17T09:17:22.927Z,22.70
2022-10-17T09:20:47.413Z,22.80
2022-10-17T09:24:03.917Z,22.80
2022-10-17T09:27:24.975Z,22.80
2022-10-17T09:30:46.466Z,22.80
2022-10-17T09:33:55.132Z,22.80
2022-10-17T09:36:59.737Z,22.80
2022-10-17T09:40:01.714Z,22.80
2022-10-17T09:43:06.781Z,22.80
2022-10-17T09:46:34.935Z,22.80
2022-10-17T09:49:45.346Z,22.80
2022-10-17T09:52:49.325Z,22.90
2022-10-17T09:56:01.477Z,22.90
2022-10-17T09:59:03.616Z,22.90
2022-10-17T10:02:18.565Z,22.80
2022-10-17T10:05:21.517Z,22.90
2022-10-17T10:08:26.312Z,22.90
2022-10-17T10:11:48.735Z,22.90
2022-10-17T10:14:54.626Z,22.80
2022-10-17T10:17:57.079Z,22.90
2022-10-17T10:21:11.510Z,22.80
2022-10-17T10:24:14.114Z,22.90
2022-10-17T10:27:18.233Z,22.90
2022-10-17T10:30:25.858Z,22.90
2022-10-17T10:33:28.950Z,22.90
2022-10-17T10:36:53.658Z,22.90
2022-10-17T10:39:58.305Z,22.90
2022-10-17T10:43:05.151Z,22.90
2022-10-17T10:46:20.741Z,22.90
2022-10-17T10:49:31.082Z,22.90
2022-10-17T10:52:45.822Z,22.90
2022-10-17T10:55:58.861Z,22.80
2022-10-17T10:59:19.233Z,22.80
2022-10-17T11:02:44.055Z,22.80
2022-10-17T11:05:54.897Z,22.80
2022-10-17T11:09:27.892Z,22.80
2022-10-17T11:12:39.271Z,22.80
2022-10-17T11:15:48.164Z,22.80
2022-10-17T11:19:21.853Z,22.80
2022-10-17T11:22:42.081Z,22.80
2022-10-17T11:25:43.826Z,22.80
2022-10-17T11:28:45.592Z,22.80
2022-10-17T11:31:51.801Z,22.80
2022-10-17T11:35:04.140Z,22.80
2022-10-17T11:38:35.497Z,22.80
2022-10-17T11:41:42.901Z,22.80
2022-10-17T11:44:44.869Z,22.90
2022-10-17T11:47:57.538Z,22.90
2022-10-17T11:54:42.649Z,22.90
2022-10-17T11:58:04.419Z,22.90
2022-10-17T12:01:30.268Z,22.90
2022-10-17T12:04:52.965Z,22.90
2022-10-17T12:08:26.944Z,22.90
2022-10-17T12:11:45.594Z,22.80
2022-10-17T12:14:47.603Z,22.80
2022-10-17T12:18:03.370Z,22.90
2022-10-17T12:21:05.211Z,22.90
2022-10-17T12:24:28.860Z,22.80
2022-10-17T12:27:46.291Z,22.80
2022-10-17T12:31:06.122Z,22.80
2022-10-17T12:34:24.372Z,22.80
2022-10-17T12:37:44.989Z,22.80
2022-10-17T12:40:52.828Z,22.80
2022-10-17T12:43:55.002Z,22.80
2022-10-17T12:46:58.523Z,22.80
2022-10-17T12:50:00.250Z,22.80
2022-10-17T12:53:06.722Z,22.80
2022-10-17T12:56:08.703Z,22.80
2022-10-17T12:59:26.591Z,22.80
2022-10-17T13:02:29.930Z,22.80
2022-10-17T13:05:37.308Z,22.80
2022-10-17T13:08:46.362Z,22.80
2022-10-17T13:11:50.399Z,22.80
2022-10-17T13:14:55.821Z,22.80
2022-10-17T13:18:00.746Z,22.80
2022-10-17T13:21:15.986Z,22.80
2022-10-17T13:24:33.793Z,22.80
2022-10-17T13:27:36.517Z,22.70
2022-10-17T13:30:38.480Z,22.80
2022-10-17T13:33:42.200Z,22.80
2022-10-17T13:36:48.741Z,22.70
2022-10-17T13:40:03.023Z,22.70
2022-10-17T13:43:18.726Z,22.80
2022-10-17T13:46:40.042Z,22.70
2022-10-17T13:49:43.030Z,22.70
2022-10-17T13:52:44.753Z,22.70
2022-10-17T13:56:09.492Z,22.70
2022-10-17T13:59:25.212Z,22.70
2022-10-17T14:02:29.761Z,22.70
2022-10-17T14:05:33.500Z,22.70
2022-10-17T14:08:37.465Z,22.70
2022-10-17T14:11:44.434Z,22.70
2022-10-17T14:15:10.541Z,22.70
2022-10-17T14:18:24.563Z,22.70
2022-10-17T14:21:40.909Z,22.70
2022-10-17T14:24:45.927Z,22.70
2022-10-17T14:27:58.019Z,22.70
2022-10-17T14:31:37.967Z,22.60
2022-10-17T14:34:40.688Z,22.70
2022-10-17T14:37:48.706Z,22.60
2022-10-17T14:40:52.836Z,22.70
2022-10-17T14:44:00.937Z,22.60
2022-10-17T14:47:18.645Z,22.60
2022-10-17T14:50:29.269Z,22.60
2022-10-17T14:53:31.167Z,22.60
2022-10-17T14:56:42.054Z,22.60
2022-10-17T14:59:53.818Z,22.60
2022-10-17T15:02:56.565Z,22.60
2022-10-17T15:05:59.418Z,22.60
2022-10-17T15:09:01.213Z,22.60
2022-10-17T15:12:06.892Z,22.60
2022-10-17T15:15:08.918Z,22.60
2022-10-17T15:18:12.015Z,22.50
2022-10-17T15:21:26.239Z,22.50
2022-10-17T15:24:37.011Z,22.60
2022-10-17T15:27:38.722Z,22.50
2022-10-17T15:30:40.409Z,22.50
2022-10-17T15:33:43.027Z,22.50
2022-10-17T15:36:50.494Z,22.50
2022-10-17T15:39:55.738Z,22.50
2022-10-17T15:42:57.875Z,22.50
2022-10-17T15:46:00.592Z,22.50
2022-10-17T15:49:07.450Z,22.50
2022-10-17T15:52:09.206Z,22.50
2022-10-17T15:55:11.135Z,22.50
2022-10-17T15:58:16.252Z,22.50
2022-10-17T16:01:24.000Z,22.50
2022-10-17T16:04:27.394Z,22.50
2022-10-17T16:07:29.442Z,22.50
2022-10-17T16:10:31.810Z,22.50
2022-10-17T16:13:33.774Z,22.50
2022-10-17T16:16:35.599Z,22.50
2022-10-17T16:19:37.336Z,22.50
2022-10-17T16:22:41.965Z,22.50
2022-10-17T16:25:43.711Z,22.50
2022-10-17T16:28:46.530Z,22.50
2022-10-17T16:31:48.497Z,22.40
2022-10-17T16:34:50.300Z,22.40
2022-10-17T16:37:52.226Z,22.40
2022-10-17T16:40:53.952Z,22.50
2022-10-17T16:44:01.316Z,22.40
2022-10-17T16:47:03.079Z,22.40
2022-10-17T16:50:05.032Z,22.40
2022-10-17T16:53:06.958Z,22.40
2022-10-17T16:56:14.481Z,22.40
2022-10-17T16:59:16.190Z,22.40
2022-10-17T17:02:21.174Z,22.40
2022-10-17T17:05:23.318Z,22.40
2022-10-17T17:08:25.136Z,22.40
2022-10-17T17:11:28.240Z,22.40
2022-10-17T17:14:29.970Z,22.40
2022-10-17T17:17:48.729Z,22.40
2022-10-17T17:20:51.186Z,22.40
2022-10-17T17:23:53.624Z,22.40
2022-10-17T17:26:56.686Z,22.40
2022-10-17T17:29:58.451Z,22.40
2022-10-17T17:33:00.992Z,22.40
2022-10-17T17:36:02.695Z,22.40
2022-10-17T17:39:07.816Z,22.40
2022-10-17T17:42:09.560Z,22.30
2022-10-17T17:45:11.605Z,22.40
2022-10-17T17:48:13.398Z,22.40
2022-10-17T17:51:17.515Z,22.30
2022-10-17T17:54:19.303Z,22.30
2022-10-17T17:57:21.341Z,22.40
2022-10-17T18:00:23.120Z,22.40
2022-10-17T18:03:25.518Z,22.30
2022-10-17T18:06:28.222Z,22.30
2022-10-17T18:09:29.938Z,22.40
2022-10-17T18:12:32.813Z,22.30
2022-10-17T18:15:34.731Z,22.30
2022-10-17T18:18:36.539Z,22.30
2022-10-17T18:21:38.462Z,22.30
2022-10-17T18:24:40.735Z,22.30
2022-10-17T18:27:42.556Z,22.30
2022-10-17T18:30:44.266Z,22.30
2022-10-17T18:33:46.299Z,22.30
2022-10-17T18:36:48.122Z,22.30
2022-10-17T18:39:51.609Z,22.30
2022-10-17T18:42:53.405Z,22.30
2022-10-17T18:46:00.975Z,22.30
2022-10-17T18:49:02.620Z,22.30
2022-10-17T18:52:04.438Z,22.30
2022-10-17T18:55:06.954Z,22.30
2022-10-17T18:58:08.731Z,22.30
2022-10-17T19:01:15.322Z,22.30
2022-10-17T19:04:17.471Z,22.20
2022-10-17T19:07:20.106Z,22.20
2022-10-17T19:10:22.154Z,22.20
2022-10-17T19:13:23.892Z,22.20
2022-10-17T19:16:30.335Z,22.20
2022-10-17T19:19:32.423Z,22.30
2022-10-17T19:22:34.146Z,22.20
2022-10-17T19:25:35.880Z,22.20
2022-10-17T19:28:41.431Z,22.20
2022-10-17T19:31:43.658Z,22.20
2022-10-17T19:34:45.450Z,22.30
2022-10-17T19:37:47.219Z,22.30
2022-10-17T19:40:48.958Z,22.30
2022-10-17T19:43:50.939Z,22.30
2022-10-17T19:46:52.649Z,22.20
2022-10-17T19:49:54.444Z,22.20
2022-10-17T19:52:56.266Z,22.20
2022-10-17T19:55:58.539Z,22.20
2022-10-17T19:59:00.350Z,22.20
2022-10-17T20:02:02.459Z,22.20
2022-10-17T20:05:20.828Z,22.30
2022-10-17T20:11:30.977Z,22.30
2022-10-17T20:14:35.222Z,22.30
2022-10-17T20:17:39.267Z,22.30
2022-10-17T20:20:40.997Z,22.20
2022-10-17T20:23:43.432Z,22.20
2022-10-17T20:26:45.809Z,22.30
2022-10-17T20:29:47.693Z,22.30
2022-10-17T20:32:49.424Z,22.30
2022-10-17T20:35:51.347Z,22.30
2022-10-17T20:38:55.049Z,22.30
2022-10-17T20:41:56.786Z,22.30
2022-10-17T20:44:58.696Z,22.30
2022-10-17T20:48:00.445Z,22.20
2022-10-17T20:51:07.780Z,22.20
2022-10-17T20:54:10.006Z,22.20
2022-10-17T20:57:11.730Z,22.20
2022-10-17T21:00:13.867Z,22.20
2022-10-17T21:03:15.627Z,22.20
2022-10-17T21:06:18.305Z,22.20
2022-10-17T21:09:20.538Z,22.20
2022-10-17T21:12:31.411Z,22.20
2022-10-17T21:15:43.966Z,22.20
2022-10-17T21:18:46.020Z,22.20
2022-10-17T21:21:47.746Z,22.20
2022-10-17T21:24:49.450Z,22.20
2022-10-17T21:27:53.156Z,22.20
2022-10-17T21:30:54.874Z,22.30
2022-10-17T21:33:58.555Z,22.30
2022-10-17T21:37:00.769Z,22.30
2022-10-17T21:40:02.503Z,22.30
2022-10-17T21:43:04.182Z,22.30
2022-10-17T21:46:09.003Z,22.30
2022-10-17T21:49:13.030Z,22.20
2022-10-17T21:52:14.749Z,22.20
2022-10-17T21:55:16.449Z,22.20
2022-10-17T21:58:19.186Z,22.20
2022-10-17T22:01:23.833Z,22.20
2022-10-17T22:04:25.564Z,22.20
2022-10-17T22:07:27.284Z,22.20
2022-10-17T22:10:28.993Z,22.20
2022-10-17T22:13:30.808Z,22.20
2022-10-17T22:16:32.950Z,22.10
2022-10-17T22:19:34.711Z,22.20
2022-10-17T22:22:36.406Z,22.20
2022-10-17T22:25:38.119Z,22.20
2022-10-17T22:28:41.190Z,22.20
2022-10-17T22:31:43.450Z,22.20
2022-10-17T22:34:45.536Z,22.10
2022-10-17T22:37:48.149Z,22.10
2022-10-17T22:40:49.916Z,22.10
2022-10-17T22:43:51.612Z,22.20
2022-10-17T22:46:53.297Z,22.10
2022-10-17T22:49:55.058Z,22.10
2022-10-17T22:52:56.822Z,22.20
2022-10-17T22:56:10.039Z,22.10
2022-10-17T22:59:11.751Z,22.10
2022-10-17T23:02:13.638Z,22.10
2022-10-17T23:05:15.427Z,22.10
2022-10-17T23:08:18.057Z,22.10
2022-10-17T23:11:20.824Z,22.10
2022-10-17T23:14:22.637Z,22.10
2022-10-17T23:17:24.330Z,22.20
2022-10-17T23:20:26.368Z,22.10
2022-10-17T23:23:28.071Z,22.20
2022-10-17T23:26:29.786Z,22.10
2022-10-17T23:29:33.026Z,22.20
2022-10-17T23:32:34.795Z,22.20
2022-10-17T23:35:36.538Z,22.10
2022-10-17T23:38:39.792Z,22.20
2022-10-17T23:41:41.520Z,22.10
2022-10-17T23:44:43.216Z,22.10
2022-10-17T23:47:45.003Z,22.10
2022-10-17T23:50:46.697Z,22.10
2022-10-17T23:53:48.390Z,22.10
2022-10-17T23:56:50.142Z,22.10
2022-10-17T23:59:51.874Z,22.10
